Time;durP1;ratioP1;P1;durP2;ratioP2;P2;SDS_P1;SDS_P2;PMS_P1;PMS_P2;Temp;Humidity;BMP_temperature;BMP_pressure;BME280_temperature;BME280_humidity;BME280_pressure;Samples;Min_cycle;Max_cycle;Signal;HPM_P1;HPM_P2
2023/06/07 00:01:58;;;;;;;13.50;6.13;;;11.30;99.90;;;;;;4998925;28;20046;-73
2023/06/07 00:04:24;;;;;;;15.93;6.18;;;11.30;99.90;;;;;;4998942;28;20421;-73
2023/06/07 00:06:56;;;;;;;14.88;6.80;;;11.40;99.90;;;;;;4998619;28;20049;-74
2023/06/07 00:09:22;;;;;;;11.68;6.25;;;11.40;99.90;;;;;;4999665;28;20108;-73
2023/06/07 00:11:48;;;;;;;11.88;6.13;;;11.30;99.90;;;;;;5014960;28;20069;-73
2023/06/07 00:14:13;;;;;;;18.63;8.43;;;11.10;99.90;;;;;;4982338;28;20119;-73
2023/06/07 00:16:40;;;;;;;12.07;5.70;;;11.10;99.90;;;;;;4998476;28;20042;-73
2023/06/07 00:19:06;;;;;;;14.57;7.55;;;11.00;99.90;;;;;;5014649;28;20092;-73
2023/06/07 00:21:32;;;;;;;12.93;6.88;;;11.00;99.90;;;;;;5014859;28;20049;-73
2023/06/07 00:23:58;;;;;;;13.77;6.97;;;11.00;99.90;;;;;;5014908;28;20042;-72
2023/06/07 00:26:24;;;;;;;15.02;6.25;;;11.00;99.90;;;;;;5014715;28;20046;-72
2023/06/07 00:28:51;;;;;;;18.60;8.85;;;11.00;99.90;;;;;;5014849;28;20483;-72
2023/06/07 00:31:17;;;;;;;13.65;7.38;;;11.00;99.90;;;;;;5014449;28;20073;-72
2023/06/07 00:33:43;;;;;;;14.82;7.32;;;10.90;99.90;;;;;;4998291;28;20585;-72
2023/06/07 00:36:09;;;;;;;12.50;6.07;;;10.90;99.90;;;;;;4981947;28;20409;-72
2023/06/07 00:38:35;;;;;;;13.55;5.60;;;10.90;99.90;;;;;;4982207;28;20049;-72
2023/06/07 00:41:00;;;;;;;14.52;6.57;;;10.90;99.90;;;;;;4998363;28;20038;-73
2023/06/07 00:43:26;;;;;;;11.73;5.65;;;10.90;99.90;;;;;;4982160;28;20073;-72
2023/06/07 00:45:52;;;;;;;14.05;6.40;;;10.90;99.90;;;;;;4981853;28;20038;-73
2023/06/07 00:48:18;;;;;;;11.95;6.60;;;10.90;99.90;;;;;;4997886;28;20037;-72
2023/06/07 00:50:45;;;;;;;14.32;7.80;;;11.00;99.90;;;;;;5014152;28;20038;-74
2023/06/07 00:53:11;;;;;;;12.27;6.43;;;11.00;99.90;;;;;;4998192;28;20064;-72
2023/06/07 00:55:37;;;;;;;13.65;6.35;;;11.00;99.90;;;;;;5014432;28;20042;-72
2023/06/07 00:58:03;;;;;;;15.50;7.15;;;11.00;99.90;;;;;;5014328;28;20110;-72
2023/06/07 01:00:30;;;;;;;15.65;8.02;;;11.00;99.90;;;;;;5014043;28;20041;-72
2023/06/07 01:02:56;;;;;;;12.15;6.20;;;11.00;99.90;;;;;;5015685;28;20042;-73
2023/06/07 01:05:22;;;;;;;11.80;7.05;;;10.90;99.90;;;;;;4980526;28;20056;-72
2023/06/07 01:07:49;;;;;;;11.95;5.95;;;10.90;99.90;;;;;;5014094;28;20038;-73
2023/06/07 01:10:16;;;;;;;12.93;6.40;;;10.80;99.90;;;;;;5013833;28;20042;-72
2023/06/07 01:12:43;;;;;;;13.00;6.03;;;10.90;99.90;;;;;;5014077;28;20610;-73
2023/06/07 01:15:12;;;;;;;13.70;6.70;;;10.90;99.90;;;;;;4997596;28;20049;-72
2023/06/07 01:17:42;;;;;;;10.25;5.78;;;10.90;99.90;;;;;;4997395;28;20034;-72
2023/06/07 01:20:15;;;;;;;14.27;6.43;;;10.90;99.90;;;;;;4997180;28;20042;-72
2023/06/07 01:22:44;;;;;;;11.82;6.47;;;10.90;99.90;;;;;;4997166;28;20081;-72
2023/06/07 01:25:10;;;;;;;13.20;6.60;;;10.90;99.90;;;;;;5013522;28;20117;-72
2023/06/07 01:27:40;;;;;;;14.25;5.88;;;11.00;99.90;;;;;;4980918;28;20104;-72
2023/06/07 01:30:10;;;;;;;13.55;6.40;;;10.90;99.90;;;;;;4997113;28;20128;-72
2023/06/07 01:32:37;;;;;;;13.57;6.57;;;10.90;99.90;;;;;;4997017;28;20050;-72
2023/06/07 01:35:05;;;;;;;10.82;6.00;;;10.80;99.90;;;;;;5013119;28;20461;-72
2023/06/07 01:37:33;;;;;;;10.15;5.60;;;10.80;99.90;;;;;;5013301;28;20096;-72
2023/06/07 01:40:01;;;;;;;11.30;5.25;;;10.80;99.90;;;;;;5013569;28;20052;-72
2023/06/07 01:42:27;;;;;;;11.35;5.72;;;10.80;99.90;;;;;;5013496;28;20505;-72
2023/06/07 01:44:55;;;;;;;11.80;6.00;;;10.90;99.90;;;;;;4996792;28;20049;-72
2023/06/07 01:47:21;;;;;;;9.93;5.40;;;10.90;99.90;;;;;;4996887;28;20042;-73
2023/06/07 01:49:47;;;;;;;9.43;5.75;;;10.90;99.90;;;;;;5013031;28;20050;-72
2023/06/07 01:52:13;;;;;;;12.40;6.35;;;10.90;99.90;;;;;;5013209;28;20448;-73
2023/06/07 01:54:40;;;;;;;10.15;6.10;;;10.90;99.90;;;;;;4997034;28;20120;-72
2023/06/07 01:57:20;;;;;;;20.45;9.10;;;10.90;99.90;;;;;;4996653;28;20050;-72
2023/06/07 01:59:57;;;;;;;16.40;8.35;;;10.80;99.90;;;;;;4996877;28;20506;-72
2023/06/07 02:02:44;;;;;;;16.27;7.13;;;10.70;99.90;;;;;;5013067;28;20042;-73
2023/06/07 02:05:22;;;;;;;12.50;5.72;;;10.70;99.90;;;;;;4996510;28;20049;-72
2023/06/07 02:07:50;;;;;;;11.43;6.18;;;10.70;99.90;;;;;;5013362;28;20037;-72
2023/06/07 02:10:20;;;;;;;17.15;8.98;;;10.60;99.90;;;;;;4996267;28;20077;-72
2023/06/07 02:12:46;;;;;;;13.70;7.55;;;10.60;99.90;;;;;;4996367;28;20042;-72
2023/06/07 02:15:13;;;;;;;13.20;7.93;;;10.60;99.90;;;;;;5013216;28;20486;-73
2023/06/07 02:17:57;;;;;;;12.95;7.88;;;10.60;99.90;;;;;;4980183;28;20042;-72
2023/06/07 02:20:27;;;;;;;15.73;8.85;;;10.60;99.90;;;;;;5012785;28;20053;-72
2023/06/07 02:22:54;;;;;;;17.50;8.48;;;10.60;99.90;;;;;;5012364;28;20050;-72
2023/06/07 02:25:20;;;;;;;12.20;7.40;;;10.60;99.90;;;;;;4980536;28;20505;-72
2023/06/07 02:27:46;;;;;;;12.90;7.07;;;10.60;99.90;;;;;;4995816;28;20050;-72
2023/06/07 02:30:12;;;;;;;12.20;6.60;;;10.60;99.90;;;;;;4996054;28;20104;-72
2023/06/07 02:32:38;;;;;;;14.82;8.50;;;10.60;99.90;;;;;;4979971;28;20493;-72
2023/06/07 02:35:08;;;;;;;14.63;8.18;;;10.60;99.90;;;;;;5012442;28;20074;-72
2023/06/07 02:37:35;;;;;;;14.25;9.02;;;10.60;99.90;;;;;;5012563;28;20040;-72
2023/06/07 02:40:04;;;;;;;19.80;10.70;;;10.60;99.90;;;;;;4995369;28;20092;-72
2023/06/07 02:42:30;;;;;;;17.00;8.77;;;10.50;99.90;;;;;;5012277;28;20076;-72
2023/06/07 02:44:56;;;;;;;20.55;9.60;;;10.50;99.90;;;;;;4995984;28;20037;-73
2023/06/07 02:47:21;;;;;;;18.55;10.50;;;10.40;99.90;;;;;;4995270;28;20042;-72
2023/06/07 02:49:47;;;;;;;23.08;12.40;;;10.40;99.90;;;;;;4979621;28;20485;-72
2023/06/07 02:52:13;;;;;;;20.88;10.98;;;10.30;99.90;;;;;;4963451;28;20038;-72
2023/06/07 02:54:39;;;;;;;17.60;10.25;;;10.10;99.90;;;;;;4995881;28;20080;-72
2023/06/07 02:57:08;;;;;;;14.18;8.30;;;10.00;99.90;;;;;;4996035;28;20128;-72
2023/06/07 02:59:33;;;;;;;14.52;8.05;;;10.00;99.90;;;;;;4995863;28;20498;-72
2023/06/07 03:01:59;;;;;;;20.15;12.20;;;10.00;99.90;;;;;;4995663;28;20053;-72
2023/06/07 03:04:28;;;;;;;21.48;11.95;;;10.10;99.90;;;;;;4995969;28;20049;-72
2023/06/07 03:06:55;;;;;;;21.52;12.40;;;10.10;99.90;;;;;;4995560;28;20073;-73
2023/06/07 03:09:21;;;;;;;25.65;12.90;;;9.90;99.90;;;;;;4979797;28;20054;-74
2023/06/07 03:11:47;;;;;;;18.95;10.98;;;9.90;99.90;;;;;;4995844;28;20042;-73
2023/06/07 03:14:12;;;;;;;20.17;12.32;;;10.00;99.90;;;;;;5012175;28;20038;-73
2023/06/07 03:16:38;;;;;;;18.33;11.75;;;9.90;99.90;;;;;;4995502;28;20152;-73
2023/06/07 03:19:04;;;;;;;22.33;13.10;;;10.00;99.90;;;;;;4995864;28;20045;-74
2023/06/07 03:21:30;;;;;;;19.73;11.48;;;10.00;99.90;;;;;;4979254;28;20042;-74
2023/06/07 03:23:56;;;;;;;18.85;12.15;;;9.90;99.90;;;;;;4995716;28;20042;-74
2023/06/07 03:26:22;;;;;;;17.13;10.93;;;9.90;99.90;;;;;;5011823;28;20045;-74
2023/06/07 03:28:48;;;;;;;17.48;12.10;;;9.90;99.90;;;;;;5011576;28;20524;-74
2023/06/07 03:31:14;;;;;;;25.27;13.27;;;9.90;99.90;;;;;;4979562;28;20038;-73
2023/06/07 03:33:40;;;;;;;21.02;11.68;;;9.90;99.90;;;;;;4979575;28;20034;-73
2023/06/07 03:36:07;;;;;;;19.00;12.23;;;9.90;99.90;;;;;;4995411;28;20111;-73
2023/06/07 03:38:33;;;;;;;22.52;12.68;;;9.90;99.90;;;;;;4979442;28;20046;-74
2023/06/07 03:40:59;;;;;;;21.48;12.15;;;9.90;99.90;;;;;;4979206;28;20096;-74
2023/06/07 03:43:25;;;;;;;23.75;12.10;;;9.90;99.90;;;;;;4995273;28;20049;-73
2023/06/07 03:45:51;;;;;;;21.85;12.45;;;10.00;99.90;;;;;;4995538;28;20046;-73
2023/06/07 03:48:17;;;;;;;21.05;11.20;;;10.10;99.90;;;;;;4963454;28;20042;-72
2023/06/07 03:50:42;;;;;;;21.73;11.52;;;10.10;99.90;;;;;;4995229;28;20049;-73
2023/06/07 03:53:08;;;;;;;23.20;11.35;;;10.20;99.90;;;;;;4979042;28;20131;-73
2023/06/07 03:55:34;;;;;;;21.65;11.13;;;10.20;99.90;;;;;;5011460;28;20129;-73
2023/06/07 03:58:00;;;;;;;20.98;10.50;;;10.20;99.90;;;;;;4997497;28;20401;-74
2023/06/07 04:00:28;;;;;;;24.08;12.48;;;10.30;99.90;;;;;;4998895;28;20129;-73
2023/06/07 04:02:57;;;;;;;20.88;10.00;;;10.40;99.90;;;;;;5015139;28;20041;-74
2023/06/07 04:05:24;;;;;;;23.13;10.52;;;10.40;99.90;;;;;;4999046;28;20048;-73
2023/06/07 04:07:50;;;;;;;22.75;10.70;;;10.40;99.90;;;;;;5015257;28;20088;-73
2023/06/07 04:10:16;;;;;;;20.10;10.07;;;10.50;99.90;;;;;;4982934;28;20042;-73
2023/06/07 04:12:44;;;;;;;20.35;10.18;;;10.50;99.90;;;;;;4982457;28;20113;-73
2023/06/07 04:15:10;;;;;;;20.13;9.80;;;10.60;99.90;;;;;;4998880;28;20476;-72
2023/06/07 04:17:36;;;;;;;21.92;10.25;;;10.60;99.90;;;;;;4982476;28;20034;-73
2023/06/07 04:20:03;;;;;;;20.90;9.93;;;10.70;99.90;;;;;;4998651;28;20501;-73
2023/06/07 04:22:30;;;;;;;25.88;11.18;;;10.70;99.90;;;;;;4998744;28;20050;-73
2023/06/07 04:24:57;;;;;;;17.83;8.73;;;10.70;99.90;;;;;;5014724;28;20085;-73
2023/06/07 04:27:23;;;;;;;23.42;10.30;;;10.80;99.90;;;;;;4998581;28;20561;-73
2023/06/07 04:29:53;;;;;;;18.90;8.98;;;10.80;99.90;;;;;;4997652;28;20046;-73
2023/06/07 04:32:19;;;;;;;20.90;9.35;;;10.90;99.90;;;;;;4999082;28;20498;-73
2023/06/07 04:34:46;;;;;;;18.98;8.90;;;10.90;99.90;;;;;;4998530;28;20105;-73
2023/06/07 04:37:12;;;;;;;21.33;9.07;;;11.00;99.90;;;;;;4998224;28;20041;-73
2023/06/07 04:39:40;;;;;;;20.33;8.68;;;11.00;99.90;;;;;;5014472;28;20046;-73
2023/06/07 04:42:07;;;;;;;19.45;8.55;;;11.10;99.90;;;;;;4998602;28;20558;-72
2023/06/07 04:44:33;;;;;;;20.67;9.30;;;11.10;99.90;;;;;;4998305;28;20034;-73
2023/06/07 04:47:02;;;;;;;19.70;8.18;;;11.20;99.90;;;;;;5014372;28;20054;-73
2023/06/07 04:49:28;;;;;;;21.27;8.55;;;11.20;99.90;;;;;;5014407;28;20498;-73
2023/06/07 04:51:55;;;;;;;20.90;8.73;;;11.30;99.90;;;;;;4997818;28;20034;-73
2023/06/07 04:54:23;;;;;;;18.20;8.52;;;11.30;99.90;;;;;;4998268;28;20042;-73
2023/06/07 04:56:49;;;;;;;20.42;8.38;;;11.40;99.90;;;;;;5014136;28;20041;-73
2023/06/07 04:59:18;;;;;;;19.70;7.65;;;11.50;99.90;;;;;;4997686;28;20049;-73
2023/06/07 05:01:44;;;;;;;18.20;7.43;;;11.50;99.90;;;;;;4998555;28;20132;-73
2023/06/07 05:04:10;;;;;;;18.27;7.82;;;11.60;99.90;;;;;;4981603;28;20192;-72
2023/06/07 05:06:37;;;;;;;17.75;7.65;;;11.70;99.90;;;;;;4981302;28;20042;-72
2023/06/07 05:09:04;;;;;;;19.10;8.10;;;11.80;99.90;;;;;;4997028;28;20058;-72
2023/06/07 05:11:30;;;;;;;18.73;8.02;;;11.90;99.90;;;;;;4981583;28;20046;-72
2023/06/07 05:13:56;;;;;;;22.27;7.78;;;12.00;99.90;;;;;;4965233;28;20038;-72
2023/06/07 05:16:24;;;;;;;19.17;7.63;;;12.10;99.90;;;;;;4981502;28;20033;-72
2023/06/07 05:18:50;;;;;;;22.40;8.90;;;12.20;99.90;;;;;;4997750;28;20042;-72
2023/06/07 05:21:17;;;;;;;17.83;7.40;;;12.10;99.90;;;;;;4997475;28;20046;-72
2023/06/07 05:23:43;;;;;;;19.65;7.63;;;12.30;99.90;;;;;;4981184;28;20033;-73
2023/06/07 05:26:09;;;;;;;17.52;7.35;;;13.00;99.90;;;;;;4997291;28;20134;-73
2023/06/07 05:28:35;;;;;;;21.35;6.95;;;13.30;99.90;;;;;;4997019;28;20054;-73
2023/06/07 05:31:02;;;;;;;23.27;6.63;;;13.60;99.90;;;;;;5013337;28;20092;-73
2023/06/07 05:33:28;;;;;;;21.55;7.18;;;13.60;99.90;;;;;;4956241;28;20108;-73
2023/06/07 05:35:55;;;;;;;15.38;5.82;;;13.60;99.90;;;;;;4997344;28;20049;-73
2023/06/07 05:38:23;;;;;;;23.42;7.13;;;13.60;99.90;;;;;;4997363;28;20427;-73
2023/06/07 05:40:49;;;;;;;18.73;6.68;;;13.60;99.90;;;;;;4997418;28;20145;-73
2023/06/07 05:43:15;;;;;;;17.42;5.97;;;13.50;99.90;;;;;;4996903;28;20132;-74
2023/06/07 05:45:44;;;;;;;18.67;6.13;;;13.50;99.90;;;;;;4980760;28;20046;-73
2023/06/07 05:48:10;;;;;;;17.45;5.60;;;13.30;99.90;;;;;;4980751;28;20379;-73
2023/06/07 05:50:36;;;;;;;19.55;6.60;;;13.20;99.90;;;;;;4980500;28;20548;-74
2023/06/07 05:53:02;;;;;;;15.95;6.00;;;13.10;99.90;;;;;;4980546;28;20037;-73
2023/06/07 05:55:28;;;;;;;19.92;6.47;;;13.20;99.90;;;;;;4964868;28;20042;-73
2023/06/07 05:57:57;;;;;;;17.20;5.78;;;13.10;99.90;;;;;;5012966;28;20073;-74
2023/06/07 06:00:23;;;;;;;19.50;5.88;;;13.10;99.90;;;;;;4996595;28;20058;-74
2023/06/07 06:02:49;;;;;;;17.15;5.90;;;13.10;99.90;;;;;;4996873;28;20128;-73
2023/06/07 06:05:15;;;;;;;15.48;5.70;;;13.20;99.90;;;;;;5012822;28;20104;-73
2023/06/07 06:07:42;;;;;;;15.18;5.63;;;13.30;99.90;;;;;;4996555;28;20042;-73
2023/06/07 06:10:08;;;;;;;18.35;6.15;;;13.40;99.90;;;;;;4996350;28;20077;-73
2023/06/07 06:12:34;;;;;;;15.30;5.47;;;13.30;99.90;;;;;;4996634;28;20098;-73
2023/06/07 06:15:00;;;;;;;18.45;6.15;;;13.30;99.90;;;;;;5012646;28;20124;-73
2023/06/07 06:17:26;;;;;;;17.10;5.60;;;13.60;99.90;;;;;;4996606;28;20052;-73
2023/06/07 06:19:52;;;;;;;15.60;5.22;;;13.70;99.90;;;;;;4996330;28;20565;-73
2023/06/07 06:22:18;;;;;;;18.00;5.28;;;13.90;99.90;;;;;;5012732;28;20049;-72
2023/06/07 06:24:45;;;;;;;15.88;4.88;;;13.90;99.90;;;;;;4996364;28;20041;-73
2023/06/07 06:27:12;;;;;;;17.80;5.25;;;14.10;99.90;;;;;;4996495;28;20486;-72
2023/06/07 06:29:38;;;;;;;15.70;5.05;;;14.00;99.90;;;;;;4996199;28;20493;-73
2023/06/07 06:32:04;;;;;;;17.17;5.38;;;14.10;99.90;;;;;;4979538;28;20054;-73
2023/06/07 06:34:30;;;;;;;15.95;5.10;;;14.10;99.90;;;;;;4995988;28;20034;-73
2023/06/07 06:37:00;;;;;;;15.00;5.28;;;14.10;99.90;;;;;;4980152;28;20041;-73
2023/06/07 06:39:26;;;;;;;14.30;4.70;;;14.20;99.90;;;;;;4996627;28;20050;-72
2023/06/07 06:41:52;;;;;;;16.40;5.20;;;14.20;99.90;;;;;;4996087;28;20046;-73
2023/06/07 06:44:20;;;;;;;15.77;4.53;;;14.60;99.90;;;;;;4996020;28;20532;-73
2023/06/07 06:46:46;;;;;;;16.67;5.00;;;14.90;99.90;;;;;;4995844;28;20038;-73
2023/06/07 06:49:12;;;;;;;15.55;4.88;;;15.00;99.90;;;;;;5012157;28;20049;-72
2023/06/07 06:51:38;;;;;;;14.02;4.55;;;15.10;99.90;;;;;;5012094;28;20037;-72
2023/06/07 06:54:04;;;;;;;17.25;4.70;;;15.10;99.90;;;;;;4963873;28;20391;-73
2023/06/07 06:56:31;;;;;;;15.63;4.65;;;15.30;99.90;;;;;;4979661;28;20112;-73
2023/06/07 06:58:57;;;;;;;13.18;4.85;;;15.50;99.90;;;;;;5012101;28;20042;-72
2023/06/07 07:01:47;;;;;;;12.20;4.10;;;15.40;99.90;;;;;;4979677;28;20034;-73
2023/06/07 07:04:17;;;;;;;13.10;4.55;;;15.50;99.90;;;;;;4995678;28;20042;-73
2023/06/07 07:06:43;;;;;;;15.00;4.63;;;15.40;99.90;;;;;;4995978;28;20446;-73
2023/06/07 07:09:09;;;;;;;16.77;4.57;;;15.20;99.90;;;;;;4979603;28;20456;-73
2023/06/07 07:11:36;;;;;;;13.98;4.60;;;15.20;99.90;;;;;;4979124;28;20108;-73
2023/06/07 07:14:03;;;;;;;13.82;4.60;;;15.00;99.90;;;;;;4995916;28;20038;-73
2023/06/07 07:16:32;;;;;;;11.02;4.30;;;15.10;99.90;;;;;;5012255;28;20045;-73
2023/06/07 07:18:58;;;;;;;16.25;4.75;;;15.40;99.90;;;;;;4994501;28;20038;-73
2023/06/07 07:21:26;;;;;;;16.60;5.03;;;15.60;99.90;;;;;;5011742;28;20120;-73
2023/06/07 07:23:52;;;;;;;13.40;4.55;;;15.70;99.90;;;;;;5012046;28;20034;-73
2023/06/07 07:26:18;;;;;;;14.63;4.82;;;16.00;99.90;;;;;;4995625;28;20040;-73
2023/06/07 07:28:44;;;;;;;13.48;4.90;;;15.90;99.90;;;;;;4995287;28;20057;-73
2023/06/07 07:31:10;;;;;;;14.93;5.30;;;15.90;99.90;;;;;;4995393;28;20414;-74
2023/06/07 07:33:36;;;;;;;14.65;5.10;;;15.90;99.90;;;;;;4998664;28;20081;-73
2023/06/07 07:36:02;;;;;;;13.55;4.82;;;16.00;99.90;;;;;;4999540;28;20045;-73
2023/06/07 07:38:32;;;;;;;16.55;4.97;;;16.10;99.90;;;;;;5015565;28;20096;-73
2023/06/07 07:40:59;;;;;;;11.65;4.43;;;16.60;99.90;;;;;;4999437;28;20486;-73
2023/06/07 07:43:27;;;;;;;12.73;4.93;;;17.00;99.90;;;;;;5015757;28;20038;-73
2023/06/07 07:45:53;;;;;;;12.98;4.88;;;16.90;99.90;;;;;;4999200;28;20085;-73
2023/06/07 07:48:19;;;;;;;14.02;5.13;;;17.30;99.90;;;;;;4999180;28;20064;-73
2023/06/07 07:50:44;;;;;;;13.48;5.30;;;17.50;99.90;;;;;;4998919;28;20045;-73
2023/06/07 07:53:13;;;;;;;16.15;5.38;;;17.40;99.90;;;;;;4999231;28;20577;-73
2023/06/07 07:55:40;;;;;;;13.25;5.43;;;17.70;99.90;;;;;;4983404;28;20409;-73
2023/06/07 07:58:06;;;;;;;12.10;5.25;;;17.90;99.90;;;;;;5016513;28;20048;-73
2023/06/07 08:00:31;;;;;;;12.23;4.65;;;18.40;99.90;;;;;;4999193;28;20124;-74
2023/06/07 08:02:58;;;;;;;15.20;5.38;;;18.40;99.90;;;;;;4982623;28;20042;-73
2023/06/07 08:05:23;;;;;;;11.95;4.55;;;18.00;99.90;;;;;;5015043;28;20049;-73
2023/06/07 08:07:49;;;;;;;12.95;4.60;;;18.10;99.90;;;;;;5015123;28;20049;-73
2023/06/07 08:10:16;;;;;;;14.70;4.70;;;18.40;99.90;;;;;;4998792;28;20038;-73
2023/06/07 08:12:42;;;;;;;11.52;4.70;;;18.70;99.90;;;;;;4998720;28;20054;-74
2023/06/07 08:15:09;;;;;;;10.52;4.70;;;19.20;99.90;;;;;;4982496;28;20494;-73
2023/06/07 08:17:34;;;;;;;10.48;4.70;;;19.50;99.90;;;;;;4998526;28;20092;-74
2023/06/07 08:20:04;;;;;;;16.40;4.85;;;19.70;99.90;;;;;;4998798;28;20437;-73
2023/06/07 08:22:30;;;;;;;15.55;4.50;;;20.00;99.90;;;;;;4998565;28;20080;-73
2023/06/07 08:24:56;;;;;;;12.68;5.00;;;20.00;99.80;;;;;;4982587;28;20398;-73
2023/06/07 08:27:22;;;;;;;11.90;4.90;;;20.00;98.60;;;;;;4981968;28;20045;-73
2023/06/07 08:29:48;;;;;;;12.32;4.55;;;19.90;99.70;;;;;;5014539;28;20045;-74
2023/06/07 08:32:14;;;;;;;14.73;4.97;;;20.10;99.60;;;;;;4998353;28;20042;-74
2023/06/07 08:34:40;;;;;;;11.45;4.50;;;20.20;99.40;;;;;;5014848;28;20138;-74
2023/06/07 08:37:06;;;;;;;10.63;4.43;;;20.30;98.80;;;;;;4998180;28;20034;-74
2023/06/07 08:39:32;;;;;;;11.25;4.40;;;20.70;99.00;;;;;;4998508;28;20078;-73
2023/06/07 08:41:58;;;;;;;12.23;4.43;;;21.10;97.80;;;;;;5014438;28;20045;-74
2023/06/07 08:44:24;;;;;;;11.20;4.38;;;20.80;96.70;;;;;;4980557;28;20038;-74
2023/06/07 08:46:51;;;;;;;14.23;4.50;;;20.90;97.10;;;;;;5014360;28;20128;-74
2023/06/07 08:49:18;;;;;;;12.35;4.43;;;21.00;97.30;;;;;;5014438;28;20104;-74
2023/06/07 08:51:45;;;;;;;12.13;4.72;;;21.10;96.80;;;;;;5014408;28;20493;-74
2023/06/07 08:54:14;;;;;;;10.23;4.32;;;21.10;94.60;;;;;;5014271;28;20042;-74
2023/06/07 08:56:42;;;;;;;12.35;4.38;;;21.40;96.50;;;;;;5014177;28;20034;-74
2023/06/07 08:59:08;;;;;;;12.00;4.50;;;21.00;94.60;;;;;;4981639;28;20073;-74
2023/06/07 09:01:36;;;;;;;11.27;4.68;;;20.80;95.60;;;;;;5014353;28;20034;-74
2023/06/07 09:04:06;;;;;;;10.02;3.90;;;20.80;94.00;;;;;;4997868;28;20034;-74
2023/06/07 09:06:35;;;;;;;13.35;4.50;;;20.50;95.20;;;;;;4998534;28;20049;-74
2023/06/07 09:09:04;;;;;;;11.35;3.97;;;20.90;95.20;;;;;;4997701;28;20045;-74
2023/06/07 09:11:30;;;;;;;12.40;4.07;;;21.10;95.30;;;;;;5013928;28;20049;-73
2023/06/07 09:13:56;;;;;;;11.73;4.55;;;21.40;94.80;;;;;;4997859;28;20045;-73
2023/06/07 09:16:22;;;;;;;10.77;4.05;;;21.50;93.00;;;;;;5013808;28;20072;-73
2023/06/07 09:18:53;;;;;;;10.18;4.05;;;21.50;92.70;;;;;;4997739;28;20102;-74
2023/06/07 09:21:26;;;;;;;12.57;4.70;;;21.80;93.40;;;;;;4997691;28;20038;-74
2023/06/07 09:23:52;;;;;;;12.68;4.53;;;22.00;92.40;;;;;;5013668;28;20073;-74
2023/06/07 09:26:20;;;;;;;13.40;4.32;;;21.90;92.60;;;;;;4981445;28;20041;-74
2023/06/07 09:28:47;;;;;;;10.93;3.65;;;21.70;92.50;;;;;;4981204;28;20046;-74
2023/06/07 09:31:26;;;;;;;12.68;4.65;;;22.10;92.00;;;;;;4997152;28;20057;-74
2023/06/07 09:33:51;;;;;;;12.00;4.55;;;22.00;92.70;;;;;;4982659;28;20069;-74
2023/06/07 09:36:17;;;;;;;10.60;4.30;;;21.90;93.00;;;;;;4981161;28;20069;-74
2023/06/07 09:38:45;;;;;;;9.63;4.07;;;21.30;92.60;;;;;;4980885;28;20093;-74
2023/06/07 09:41:12;;;;;;;10.52;4.35;;;21.60;93.00;;;;;;5013589;28;20132;-74
2023/06/07 09:43:47;;;;;;;10.98;4.40;;;21.40;93.50;;;;;;4981077;28;20045;-74
2023/06/07 09:46:14;;;;;;;12.07;4.40;;;21.70;93.80;;;;;;4997263;28;20077;-74
2023/06/07 09:48:53;;;;;;;10.88;4.93;;;21.90;93.70;;;;;;4996794;28;20046;-74
2023/06/07 09:51:27;;;;;;;12.95;4.45;;;22.00;91.60;;;;;;4997054;28;20049;-74
2023/06/07 09:54:00;;;;;;;11.43;4.60;;;22.20;92.70;;;;;;4997011;28;20041;-74
2023/06/07 09:56:27;;;;;;;11.25;4.50;;;22.20;91.40;;;;;;4996286;28;20151;-75
2023/06/07 09:59:12;;;;;;;12.43;4.82;;;22.20;91.50;;;;;;4997098;28;20046;-74
2023/06/07 10:01:42;;;;;;;9.82;4.25;;;22.10;90.70;;;;;;4996424;28;20041;-75
2023/06/07 10:04:09;;;;;;;15.38;4.78;;;22.00;92.10;;;;;;4996910;28;20084;-74
2023/06/07 10:06:50;;;;;;;12.38;4.72;;;22.30;91.80;;;;;;5013121;28;20034;-75
2023/06/07 10:09:18;;;;;;;11.48;4.45;;;22.40;91.20;;;;;;4980840;28;20037;-74
2023/06/07 10:11:46;;;;;;;12.07;4.70;;;22.20;91.80;;;;;;4996486;28;20157;-75
2023/06/07 10:14:14;;;;;;;12.07;4.57;;;22.40;92.00;;;;;;4996700;28;20441;-75
2023/06/07 10:16:46;;;;;;;14.20;5.10;;;22.50;91.30;;;;;;4996467;28;20116;-75
2023/06/07 10:19:21;;;;;;;13.88;4.70;;;22.60;90.40;;;;;;4996817;28;20041;-75
2023/06/07 10:21:53;;;;;;;10.73;4.63;;;22.80;90.80;;;;;;4996500;28;20486;-75
2023/06/07 10:24:29;;;;;;;11.88;4.95;;;22.70;90.10;;;;;;5012604;28;20037;-74
2023/06/07 10:27:08;;;;;;;11.18;4.30;;;22.80;90.10;;;;;;5012773;28;20121;-74
2023/06/07 10:29:49;;;;;;;10.68;4.45;;;22.80;89.10;;;;;;4996348;28;20050;-75
2023/06/07 10:32:31;;;;;;;10.93;4.20;;;23.00;90.10;;;;;;5012496;28;20034;-75
2023/06/07 10:35:00;;;;;;;11.52;4.88;;;22.80;88.50;;;;;;5012633;28;20084;-74
2023/06/07 10:37:30;;;;;;;9.82;4.20;;;22.70;87.60;;;;;;4996315;28;20497;-74
2023/06/07 10:39:58;;;;;;;10.30;4.38;;;22.50;88.80;;;;;;5012663;28;20390;-73
2023/06/07 10:42:25;;;;;;;10.55;4.68;;;22.60;88.40;;;;;;4996182;28;20125;-75
2023/06/07 10:44:54;;;;;;;9.93;4.57;;;22.50;88.10;;;;;;4980195;28;20042;-74
2023/06/07 10:47:25;;;;;;;10.95;4.18;;;22.50;87.10;;;;;;5012571;28;20489;-74
2023/06/07 10:49:51;;;;;;;12.93;4.22;;;22.80;88.10;;;;;;4980210;28;20133;-74
2023/06/07 10:52:18;;;;;;;11.65;4.28;;;23.10;88.20;;;;;;5012092;28;20081;-74
2023/06/07 10:54:45;;;;;;;12.25;4.28;;;23.10;88.60;;;;;;4995761;28;20069;-74
2023/06/07 10:57:11;;;;;;;11.70;4.10;;;22.90;84.60;;;;;;5012331;28;20046;-74
2023/06/07 10:59:39;;;;;;;11.55;4.40;;;23.00;86.10;;;;;;5012080;28;20050;-75
2023/06/07 11:02:24;;;;;;;11.13;4.28;;;22.70;85.20;;;;;;4979665;28;20038;-73
2023/06/07 11:04:52;;;;;;;13.07;4.20;;;22.70;85.90;;;;;;5012338;28;20580;-74
2023/06/07 11:07:30;;;;;;;11.32;4.25;;;22.70;85.50;;;;;;4979099;28;20401;-74
2023/06/07 11:10:17;;;;;;;10.10;4.25;;;23.00;86.20;;;;;;4979940;28;20046;-74
2023/06/07 11:12:45;;;;;;;9.10;4.10;;;23.00;85.20;;;;;;4979321;28;20137;-74
2023/06/07 11:15:17;;;;;;;9.73;4.00;;;23.00;84.40;;;;;;4995773;28;20406;-76
2023/06/07 11:17:53;;;;;;;11.15;4.03;;;23.10;83.90;;;;;;5011892;28;20048;-75
2023/06/07 11:20:43;;;;;;;10.98;4.20;;;23.20;84.80;;;;;;4995878;28;20042;-75
2023/06/07 11:23:28;;;;;;;12.00;4.32;;;23.00;83.90;;;;;;5012020;28;20096;-74
2023/06/07 11:25:54;;;;;;;10.32;3.95;;;22.90;82.50;;;;;;5012018;28;20083;-74
2023/06/07 11:28:33;;;;;;;10.07;3.97;;;23.00;82.20;;;;;;4995293;28;20140;-75
2023/06/07 11:31:03;;;;;;;10.18;4.00;;;23.10;81.20;;;;;;4995818;28;20050;-74
2023/06/07 11:33:30;;;;;;;10.90;3.78;;;23.10;81.70;;;;;;4995690;28;20571;-74
2023/06/07 11:35:57;;;;;;;10.57;4.00;;;23.30;81.50;;;;;;4995693;28;20483;-75
2023/06/07 11:38:24;;;;;;;9.07;4.22;;;23.50;83.30;;;;;;4995600;28;20042;-75
2023/06/07 11:40:50;;;;;;;11.65;4.20;;;23.60;82.50;;;;;;5011908;28;20097;-75
2023/06/07 11:43:20;;;;;;;10.85;3.90;;;23.60;81.20;;;;;;5011765;28;20409;-75
2023/06/07 11:45:46;;;;;;;13.15;4.20;;;23.80;81.80;;;;;;5011621;28;20065;-76
2023/06/07 11:48:12;;;;;;;11.07;3.92;;;24.00;82.00;;;;;;5011938;28;20053;-75
2023/06/07 11:50:40;;;;;;;9.85;3.88;;;24.00;80.80;;;;;;5011700;28;20494;-75
2023/06/07 11:53:10;;;;;;;10.48;4.15;;;24.10;79.80;;;;;;4995344;28;20096;-76
2023/06/07 11:55:37;;;;;;;9.85;4.05;;;24.10;79.30;;;;;;5011922;28;20037;-75
2023/06/07 11:58:06;;;;;;;10.57;4.70;;;24.00;79.70;;;;;;4979428;28;20093;-75
2023/06/07 12:00:36;;;;;;;11.50;4.13;;;24.00;77.50;;;;;;5011698;28;20081;-75
2023/06/07 12:03:04;;;;;;;10.40;4.05;;;24.20;77.80;;;;;;5012185;28;20042;-74
2023/06/07 12:05:31;;;;;;;10.20;4.05;;;24.20;76.50;;;;;;4995549;28;20128;-74
2023/06/07 12:08:15;;;;;;;11.70;4.32;;;24.20;75.20;;;;;;5011734;28;20085;-74
2023/06/07 12:10:41;;;;;;;10.52;3.90;;;24.10;76.40;;;;;;4995265;28;20567;-74
2023/06/07 12:13:12;;;;;;;12.05;4.35;;;24.10;76.40;;;;;;4995325;28;20038;-74
2023/06/07 12:15:54;;;;;;;9.57;3.88;;;24.00;74.30;;;;;;4995295;28;20485;-74
2023/06/07 12:18:25;;;;;;;10.18;4.00;;;23.90;76.90;;;;;;4980908;28;20046;-75
2023/06/07 12:21:00;;;;;;;12.15;3.88;;;24.10;77.10;;;;;;5014973;28;20053;-74
2023/06/07 12:23:26;;;;;;;12.73;4.35;;;24.10;76.70;;;;;;4998375;28;20046;-74
2023/06/07 12:26:10;;;;;;;9.50;3.95;;;24.10;76.80;;;;;;4998440;28;20042;-74
2023/06/07 12:28:38;;;;;;;10.13;4.30;;;24.30;76.10;;;;;;5014515;28;20140;-75
2023/06/07 12:31:13;;;;;;;9.93;3.85;;;24.20;75.30;;;;;;4998297;28;20153;-74
2023/06/07 12:33:38;;;;;;;9.50;4.10;;;24.20;74.20;;;;;;4999893;28;20042;-74
2023/06/07 12:36:04;;;;;;;12.25;4.03;;;24.10;74.60;;;;;;5014573;28;20045;-75
2023/06/07 12:38:31;;;;;;;11.02;4.03;;;23.70;74.30;;;;;;5014571;28;20038;-76
2023/06/07 12:40:57;;;;;;;9.40;3.90;;;23.90;76.10;;;;;;4998330;28;20049;-75